KFAY

Fayetteville Regional Airport

Airport
ICAO code
KFAY
IATA Code
FAY
Summary
ICAO Region
NAM
ICAO Territory
Location

Fayetteville, North Carolina

Serving
Fayetteville
Elevation
189 ft
Coordinates
34° 59' 28" N , 78° 53' 14" W
KCC
Metar
KFAY 181353Z 30008KT 10SM CLR 26/14 A3004 RMK AO2 SLP166 T02560139

Fayetteville Regional Airport, also known as Grannis Field, is a public use airport located 3 nm south of the central business district of Fayetteville, in Cumberland County, North Carolina, USA.

Airport map

Aerial View

SKYbrary Partners:

Safety knowledge contributed by: